createdAt,value
2022-07-26T00:00:16.741Z,20.75
2022-07-26T00:02:47.194Z,20.70
2022-07-26T00:05:15.820Z,20.64
2022-07-26T00:07:42.666Z,20.66
2022-07-26T00:10:09.556Z,20.65
2022-07-26T00:12:36.743Z,20.69
2022-07-26T00:15:06.101Z,20.76
2022-07-26T00:17:32.771Z,20.71
2022-07-26T00:19:59.647Z,20.67
2022-07-26T00:22:41.604Z,20.73
2022-07-26T00:25:09.627Z,20.72
2022-07-26T00:27:37.306Z,20.60
2022-07-26T00:30:07.703Z,20.70
2022-07-26T00:32:34.611Z,20.60
2022-07-26T00:35:01.412Z,20.61
2022-07-26T00:37:28.201Z,20.60
2022-07-26T00:39:54.924Z,20.56
2022-07-26T00:42:21.601Z,20.57
2022-07-26T00:44:48.353Z,20.46
2022-07-26T00:47:15.688Z,20.49
2022-07-26T00:49:43.275Z,20.48
2022-07-26T00:52:11.605Z,20.38
2022-07-26T00:54:40.231Z,20.28
2022-07-26T00:57:06.950Z,20.40
2022-07-26T00:59:33.762Z,20.27
2022-07-26T01:02:02.061Z,20.29
2022-07-26T01:04:29.099Z,20.27
2022-07-26T01:06:56.253Z,20.24
2022-07-26T01:09:23.370Z,20.32
2022-07-26T01:11:51.328Z,20.28
2022-07-26T01:14:22.514Z,20.24
2022-07-26T01:16:49.579Z,20.18
2022-07-26T01:19:17.060Z,20.24
2022-07-26T01:21:44.292Z,20.21
2022-07-26T01:24:11.229Z,20.15
2022-07-26T01:26:38.199Z,20.17
2022-07-26T01:29:05.482Z,20.04
2022-07-26T01:31:32.287Z,19.96
2022-07-26T01:33:59.262Z,19.91
2022-07-26T01:36:26.116Z,19.88
2022-07-26T01:38:52.906Z,19.87
2022-07-26T01:41:22.801Z,19.75
2022-07-26T01:44:06.057Z,19.70
2022-07-26T01:46:33.797Z,19.76
2022-07-26T01:49:01.710Z,19.62
2022-07-26T01:51:28.745Z,19.55
2022-07-26T01:53:55.510Z,19.54
2022-07-26T01:56:22.302Z,19.44
2022-07-26T01:58:50.026Z,19.36
2022-07-26T02:01:16.874Z,19.40
2022-07-26T02:04:03.278Z,19.39
2022-07-26T02:06:29.956Z,19.32
2022-07-26T02:08:56.561Z,19.38
2022-07-26T02:11:23.332Z,19.29
2022-07-26T02:13:53.065Z,19.43
2022-07-26T02:16:20.185Z,19.38
2022-07-26T02:18:47.043Z,19.39
2022-07-26T02:21:13.729Z,19.41
2022-07-26T02:23:41.937Z,19.34
2022-07-26T02:26:09.405Z,19.31
2022-07-26T02:28:36.100Z,19.34
2022-07-26T02:31:02.970Z,19.31
2022-07-26T02:33:29.763Z,19.37
2022-07-26T02:35:56.526Z,19.16
2022-07-26T02:38:23.162Z,19.29
2022-07-26T02:40:52.867Z,19.23
2022-07-26T02:43:20.021Z,19.28
2022-07-26T02:46:01.574Z,19.13
2022-07-26T02:48:31.020Z,19.29
2022-07-26T02:50:57.837Z,19.18
2022-07-26T02:53:24.502Z,19.15
2022-07-26T02:55:51.130Z,19.20
2022-07-26T02:58:19.971Z,19.26
2022-07-26T03:00:46.637Z,19.20
2022-07-26T03:03:14.388Z,19.09
2022-07-26T03:05:41.505Z,19.07
2022-07-26T03:08:08.810Z,19.12
2022-07-26T03:10:35.635Z,19.05
2022-07-26T03:13:02.519Z,19.03
2022-07-26T03:15:29.419Z,19.06
2022-07-26T03:17:56.190Z,19.10
2022-07-26T03:20:23.058Z,19.13
2022-07-26T03:22:49.794Z,19.14
2022-07-26T03:25:16.550Z,19.21
2022-07-26T03:27:43.521Z,19.17
2022-07-26T03:30:11.024Z,19.22
2022-07-26T03:32:37.917Z,19.25
2022-07-26T03:35:06.295Z,19.25
2022-07-26T03:37:45.758Z,19.28
2022-07-26T03:40:14.991Z,19.24
2022-07-26T03:42:41.677Z,19.17
2022-07-26T03:45:09.408Z,19.24
2022-07-26T03:47:37.241Z,19.15
2022-07-26T03:50:05.593Z,19.15
2022-07-26T03:52:32.246Z,19.12
2022-07-26T03:54:59.067Z,19.17
2022-07-26T03:57:25.736Z,19.25
2022-07-26T03:59:58.405Z,19.23
2022-07-26T04:02:25.117Z,19.27
2022-07-26T04:04:51.810Z,19.19
2022-07-26T04:07:18.433Z,19.22
2022-07-26T04:09:45.914Z,19.28
2022-07-26T04:12:12.582Z,19.23
2022-07-26T04:14:42.531Z,19.16
2022-07-26T04:17:09.490Z,19.11
2022-07-26T04:19:39.817Z,19.21
2022-07-26T04:22:07.060Z,19.16
2022-07-26T04:24:33.753Z,19.18
2022-07-26T04:27:00.463Z,19.23
2022-07-26T04:29:27.195Z,19.24
2022-07-26T04:31:53.813Z,19.26
2022-07-26T04:34:20.487Z,19.26
2022-07-26T04:36:47.140Z,19.27
2022-07-26T04:39:13.756Z,19.20
2022-07-26T04:41:40.418Z,19.21
2022-07-26T04:44:07.435Z,19.20
2022-07-26T04:46:34.311Z,19.27
2022-07-26T04:49:01.132Z,19.25
2022-07-26T04:51:27.845Z,19.25
2022-07-26T04:53:54.549Z,19.26
2022-07-26T04:56:21.233Z,19.28
2022-07-26T04:58:47.984Z,19.31
2022-07-26T05:01:15.145Z,19.27
2022-07-26T05:03:41.996Z,19.37
2022-07-26T05:06:08.708Z,19.34
2022-07-26T05:08:35.413Z,19.33
2022-07-26T05:11:02.144Z,19.26
2022-07-26T05:13:29.813Z,19.31
2022-07-26T05:15:57.915Z,19.32
2022-07-26T05:18:25.735Z,19.30
2022-07-26T05:20:52.667Z,19.34
2022-07-26T05:23:20.654Z,19.36
2022-07-26T05:25:47.541Z,19.36
2022-07-26T05:28:14.424Z,19.42
2022-07-26T05:30:41.144Z,19.44
2022-07-26T05:33:08.022Z,19.47
2022-07-26T05:35:34.720Z,19.49
2022-07-26T05:38:02.009Z,19.47
2022-07-26T05:40:28.788Z,19.57
2022-07-26T05:42:55.740Z,19.59
2022-07-26T05:45:22.586Z,19.55
2022-07-26T05:47:51.006Z,19.69
2022-07-26T05:50:17.927Z,19.60
2022-07-26T05:52:44.860Z,19.66
2022-07-26T05:55:11.600Z,19.60
2022-07-26T05:57:41.567Z,19.60
2022-07-26T06:00:10.013Z,19.62
2022-07-26T06:02:36.832Z,19.61
2022-07-26T06:05:03.929Z,19.63
2022-07-26T06:07:30.676Z,19.64
2022-07-26T06:09:57.347Z,19.65
2022-07-26T06:12:24.173Z,19.79
2022-07-26T06:14:50.933Z,19.74
2022-07-26T06:17:17.699Z,19.77
2022-07-26T06:19:47.731Z,19.78
2022-07-26T06:22:14.990Z,19.75
2022-07-26T06:24:41.678Z,19.79
2022-07-26T06:27:08.417Z,19.82
2022-07-26T06:29:35.059Z,19.89
2022-07-26T06:32:02.142Z,19.86
2022-07-26T06:34:29.004Z,20.04
2022-07-26T06:36:55.737Z,20.02
2022-07-26T06:39:22.414Z,19.97
2022-07-26T06:41:49.123Z,20.04
2022-07-26T06:44:15.759Z,20.04
2022-07-26T06:46:42.407Z,19.94
2022-07-26T06:49:09.188Z,19.89
2022-07-26T06:51:35.878Z,19.84
2022-07-26T06:54:03.776Z,20.00
2022-07-26T06:56:30.456Z,19.94
2022-07-26T06:58:57.091Z,19.94
2022-07-26T07:01:58.273Z,19.96
2022-07-26T07:04:11.066Z,20.04
2022-07-26T07:06:38.009Z,20.03
2022-07-26T07:09:04.925Z,20.16
2022-07-26T07:11:35.353Z,20.08
2022-07-26T07:14:03.328Z,20.10
2022-07-26T07:16:30.339Z,19.98
2022-07-26T07:18:57.211Z,20.12
2022-07-26T07:21:23.911Z,20.14
2022-07-26T07:23:50.536Z,20.28
2022-07-26T07:26:17.189Z,20.29
2022-07-26T07:28:43.856Z,20.31
2022-07-26T07:31:10.569Z,20.35
2022-07-26T07:33:52.888Z,20.39
2022-07-26T07:36:21.434Z,20.56
2022-07-26T07:38:49.402Z,20.58
2022-07-26T07:41:16.373Z,20.65
2022-07-26T07:43:43.066Z,20.60
2022-07-26T07:46:09.860Z,20.76
2022-07-26T07:48:37.603Z,20.73
2022-07-26T07:51:04.389Z,20.86
2022-07-26T07:53:31.864Z,20.78
2022-07-26T07:55:58.753Z,20.82
2022-07-26T07:58:25.764Z,20.82
2022-07-26T08:00:55.139Z,20.90
2022-07-26T08:03:22.084Z,20.90
2022-07-26T08:05:49.850Z,20.90
2022-07-26T08:08:18.609Z,20.91
2022-07-26T08:10:51.902Z,20.97
2022-07-26T08:13:21.294Z,21.02
2022-07-26T08:15:51.215Z,20.94
2022-07-26T08:18:18.060Z,20.91
2022-07-26T08:20:48.686Z,20.94
2022-07-26T08:23:16.513Z,21.00
2022-07-26T08:25:55.724Z,20.99
2022-07-26T08:28:45.574Z,21.03
2022-07-26T08:31:10.257Z,21.04
2022-07-26T08:33:37.048Z,21.28
2022-07-26T08:36:07.775Z,21.34
2022-07-26T08:38:34.564Z,21.37
2022-07-26T08:41:01.279Z,21.50
2022-07-26T08:43:28.998Z,21.78
2022-07-26T08:46:04.177Z,21.83
2022-07-26T08:48:31.017Z,21.79
2022-07-26T08:50:59.788Z,21.91
2022-07-26T08:53:29.846Z,21.87
2022-07-26T08:56:06.776Z,21.96
2022-07-26T08:58:36.296Z,21.98
2022-07-26T09:01:05.923Z,22.05
2022-07-26T09:03:32.784Z,22.09
2022-07-26T09:06:12.221Z,22.13
2022-07-26T09:08:39.300Z,22.14
2022-07-26T09:11:28.257Z,22.24
2022-07-26T09:13:54.926Z,22.21
2022-07-26T09:16:21.741Z,22.21
2022-07-26T09:18:48.638Z,22.19
2022-07-26T09:21:31.871Z,22.21
2022-07-26T09:23:59.608Z,22.36
2022-07-26T09:26:27.229Z,22.20
2022-07-26T09:29:10.435Z,22.33
2022-07-26T09:31:39.183Z,22.28
2022-07-26T09:34:07.289Z,22.36
2022-07-26T09:36:51.595Z,22.38
2022-07-26T09:39:22.731Z,22.42
2022-07-26T09:42:26.835Z,22.50
2022-07-26T09:44:56.207Z,22.57
2022-07-26T09:47:24.176Z,22.52
2022-07-26T09:50:11.685Z,22.60
2022-07-26T09:52:38.653Z,22.61
2022-07-26T09:55:07.724Z,22.71
2022-07-26T09:57:36.225Z,22.61
2022-07-26T10:00:05.873Z,22.65
2022-07-26T10:02:34.694Z,22.72
2022-07-26T10:05:01.817Z,22.71
2022-07-26T10:07:28.816Z,22.61
2022-07-26T10:10:03.587Z,22.59
2022-07-26T10:12:33.102Z,22.68
2022-07-26T10:14:59.903Z,22.62
2022-07-26T10:17:45.907Z,22.65
2022-07-26T10:20:43.155Z,22.63
2022-07-26T10:23:36.466Z,22.56
2022-07-26T10:26:05.753Z,22.59
2022-07-26T10:28:35.410Z,22.49
2022-07-26T10:31:25.796Z,22.57
2022-07-26T10:33:54.853Z,22.57
2022-07-26T10:36:22.734Z,22.47
2022-07-26T10:39:06.387Z,22.58
2022-07-26T10:41:57.397Z,22.52
2022-07-26T10:44:25.667Z,22.50
2022-07-26T10:46:56.859Z,22.69
2022-07-26T10:49:40.644Z,22.72
2022-07-26T10:52:10.535Z,22.76
2022-07-26T10:55:07.834Z,22.94
2022-07-26T10:57:38.326Z,23.02
2022-07-26T11:00:21.905Z,22.97
2022-07-26T11:02:53.015Z,22.99
2022-07-26T11:05:20.415Z,23.01
2022-07-26T11:08:06.259Z,23.03
2022-07-26T11:10:37.563Z,22.98
2022-07-26T11:13:11.145Z,22.91
2022-07-26T11:15:40.546Z,22.90
2022-07-26T11:18:12.580Z,22.79
2022-07-26T11:20:41.039Z,22.64
2022-07-26T11:23:24.916Z,22.65
2022-07-26T11:26:12.250Z,22.70
2022-07-26T11:28:53.016Z,22.52
2022-07-26T11:31:51.420Z,22.48
2022-07-26T11:34:18.807Z,22.48
2022-07-26T11:36:47.424Z,22.36
2022-07-26T11:39:20.372Z,22.24
2022-07-26T11:41:47.250Z,22.10
2022-07-26T11:44:17.307Z,22.13
2022-07-26T11:46:47.841Z,21.98
2022-07-26T11:49:18.419Z,21.91
2022-07-26T11:51:49.261Z,21.85
2022-07-26T11:54:16.844Z,21.73
2022-07-26T11:57:07.222Z,21.57
2022-07-26T11:59:36.491Z,21.53
2022-07-26T12:02:08.805Z,21.51
2022-07-26T12:04:39.317Z,21.50
2022-07-26T12:07:11.581Z,21.44
2022-07-26T12:09:41.754Z,21.51
2022-07-26T12:12:10.753Z,21.52
2022-07-26T12:14:38.937Z,21.61
2022-07-26T12:17:20.912Z,21.76
2022-07-26T12:19:47.762Z,21.74
2022-07-26T12:22:17.362Z,21.78
2022-07-26T12:24:45.107Z,21.88
2022-07-26T12:27:14.928Z,21.98
2022-07-26T12:29:44.755Z,21.97
2022-07-26T12:32:13.519Z,22.15
2022-07-26T12:34:42.244Z,22.15
2022-07-26T12:37:14.596Z,22.18
2022-07-26T12:39:42.542Z,22.21
2022-07-26T12:42:34.618Z,22.25
2022-07-26T12:45:03.154Z,22.20
2022-07-26T12:47:30.025Z,22.30
2022-07-26T12:49:56.697Z,22.20
2022-07-26T12:52:24.014Z,22.25
2022-07-26T12:54:53.118Z,22.17
2022-07-26T12:57:21.055Z,22.10
2022-07-26T12:59:48.845Z,22.12
2022-07-26T13:02:18.402Z,22.08
2022-07-26T13:04:45.835Z,22.06
2022-07-26T13:07:15.721Z,21.96
2022-07-26T13:09:43.503Z,21.94
2022-07-26T13:12:11.636Z,21.85
2022-07-26T13:14:39.200Z,21.79
2022-07-26T13:17:07.405Z,21.78
2022-07-26T13:19:35.097Z,21.69
2022-07-26T13:22:03.096Z,21.63
2022-07-26T13:24:32.545Z,21.56
2022-07-26T13:27:00.821Z,21.49
2022-07-26T13:29:27.898Z,21.54
2022-07-26T13:31:55.966Z,21.50
2022-07-26T13:34:24.050Z,21.64
2022-07-26T13:36:50.893Z,21.57
2022-07-26T13:39:18.091Z,21.56
2022-07-26T13:41:44.921Z,21.59
2022-07-26T13:44:11.994Z,21.58
2022-07-26T13:46:41.785Z,21.66
2022-07-26T13:49:08.592Z,21.75
2022-07-26T13:51:52.769Z,21.68
2022-07-26T13:54:20.821Z,21.64
2022-07-26T13:56:47.746Z,21.66
2022-07-26T13:59:15.639Z,21.77
2022-07-26T14:01:44.697Z,21.75
2022-07-26T14:04:13.158Z,21.82
2022-07-26T14:06:40.853Z,22.00
2022-07-26T14:09:11.045Z,22.07
2022-07-26T14:11:38.435Z,22.08
2022-07-26T14:14:06.298Z,22.18
2022-07-26T14:16:35.690Z,22.33
2022-07-26T14:19:02.607Z,22.44
2022-07-26T14:21:47.072Z,22.53
2022-07-26T14:24:18.995Z,22.73
2022-07-26T14:26:47.833Z,22.78
2022-07-26T14:29:15.174Z,22.89
2022-07-26T14:31:41.995Z,22.96
2022-07-26T14:34:08.999Z,23.02
2022-07-26T14:36:37.130Z,23.17
2022-07-26T14:39:03.938Z,23.34
2022-07-26T14:41:31.728Z,23.52
2022-07-26T14:43:58.573Z,23.63
2022-07-26T14:46:25.240Z,23.61
2022-07-26T14:48:54.890Z,23.75
2022-07-26T14:51:22.254Z,23.81
2022-07-26T14:53:48.978Z,23.78
2022-07-26T14:56:15.597Z,23.80
2022-07-26T14:58:42.366Z,23.94
2022-07-26T15:01:09.266Z,23.78
2022-07-26T15:03:36.052Z,23.97
2022-07-26T15:06:02.838Z,23.98
2022-07-26T15:08:29.557Z,23.96
2022-07-26T15:10:56.219Z,23.97
2022-07-26T15:13:22.988Z,23.96
2022-07-26T15:15:50.234Z,23.89
2022-07-26T15:18:16.941Z,23.78
2022-07-26T15:20:43.856Z,23.74
2022-07-26T15:23:12.221Z,23.68
2022-07-26T15:25:38.970Z,23.68
2022-07-26T15:28:05.722Z,23.59
2022-07-26T15:30:36.115Z,23.67
2022-07-26T15:33:02.962Z,23.73
2022-07-26T15:35:30.044Z,23.74
2022-07-26T15:37:57.848Z,23.69
2022-07-26T15:40:24.836Z,23.70
2022-07-26T15:42:52.899Z,23.69
2022-07-26T15:45:20.470Z,23.68
2022-07-26T15:48:03.152Z,23.70
2022-07-26T15:50:34.793Z,23.77
2022-07-26T15:53:01.390Z,23.83
2022-07-26T15:55:28.190Z,23.87
2022-07-26T15:57:55.047Z,23.84
2022-07-26T16:00:22.134Z,23.77
2022-07-26T16:02:52.159Z,23.74
2022-07-26T16:05:19.000Z,23.80
2022-07-26T16:07:46.259Z,23.91
2022-07-26T16:10:14.295Z,23.93
2022-07-26T16:12:42.177Z,23.87
2022-07-26T16:15:10.276Z,23.85
2022-07-26T16:17:37.434Z,23.87
2022-07-26T16:20:05.342Z,23.87
2022-07-26T16:22:33.046Z,23.89
2022-07-26T16:24:59.773Z,23.96
2022-07-26T16:27:26.477Z,24.11
2022-07-26T16:29:53.296Z,24.11
2022-07-26T16:32:21.328Z,24.07
2022-07-26T16:34:48.357Z,24.09
2022-07-26T16:37:15.622Z,24.11
2022-07-26T16:39:42.619Z,24.15
2022-07-26T16:42:09.460Z,24.08
2022-07-26T16:44:36.459Z,24.11
2022-07-26T16:47:04.206Z,23.92
2022-07-26T16:49:31.313Z,23.97
2022-07-26T16:51:58.352Z,23.89
2022-07-26T16:54:25.239Z,23.84
2022-07-26T16:56:51.997Z,23.74
2022-07-26T16:59:18.977Z,23.62
2022-07-26T17:01:45.787Z,23.61
2022-07-26T17:04:12.642Z,23.57
2022-07-26T17:06:39.390Z,23.61
2022-07-26T17:09:06.084Z,23.55
2022-07-26T17:11:33.116Z,23.53
2022-07-26T17:13:59.916Z,23.65
2022-07-26T17:16:27.418Z,23.58
2022-07-26T17:18:55.382Z,23.70
2022-07-26T17:21:22.407Z,23.53
2022-07-26T17:23:50.363Z,23.44
2022-07-26T17:26:18.769Z,23.54
2022-07-26T17:28:46.009Z,23.38
2022-07-26T17:31:12.796Z,23.46
2022-07-26T17:33:39.652Z,23.30
2022-07-26T17:36:24.398Z,23.23
2022-07-26T17:38:52.028Z,23.14
2022-07-26T17:41:19.878Z,23.08
2022-07-26T17:43:47.292Z,23.14
2022-07-26T17:46:14.131Z,23.07
2022-07-26T17:48:43.947Z,23.10
2022-07-26T17:51:10.789Z,22.98
2022-07-26T17:53:37.520Z,23.02
2022-07-26T17:56:04.493Z,23.17
2022-07-26T17:58:31.318Z,23.08
2022-07-26T18:00:58.044Z,23.12
2022-07-26T18:03:24.935Z,23.17
2022-07-26T18:05:51.861Z,23.09
2022-07-26T18:08:18.677Z,23.02
2022-07-26T18:10:50.690Z,22.91
2022-07-26T18:13:17.897Z,22.96
2022-07-26T18:15:44.862Z,22.76
2022-07-26T18:18:11.664Z,22.63
2022-07-26T18:20:38.454Z,22.51
2022-07-26T18:23:05.267Z,22.38
2022-07-26T18:25:32.090Z,22.36
2022-07-26T18:28:03.271Z,22.35
2022-07-26T18:30:33.536Z,22.31
2022-07-26T18:33:00.342Z,22.25
2022-07-26T18:35:27.606Z,22.22
2022-07-26T18:37:54.598Z,22.16
2022-07-26T18:40:23.640Z,22.03
2022-07-26T18:42:50.709Z,22.02
2022-07-26T18:45:17.482Z,22.05
2022-07-26T18:47:44.292Z,21.95
2022-07-26T18:50:16.943Z,21.89
2022-07-26T18:52:44.736Z,21.92
2022-07-26T18:55:12.928Z,21.94
2022-07-26T18:57:41.186Z,21.90
2022-07-26T19:00:14.209Z,21.85
2022-07-26T19:02:41.933Z,21.83
2022-07-26T19:05:09.386Z,21.81
2022-07-26T19:07:37.676Z,21.89
2022-07-26T19:10:06.520Z,21.86
2022-07-26T19:12:33.312Z,21.74
2022-07-26T19:15:00.118Z,21.65
2022-07-26T19:17:28.001Z,21.62
2022-07-26T19:19:57.435Z,21.55
2022-07-26T19:22:25.952Z,21.52
2022-07-26T19:24:52.860Z,21.50
2022-07-26T19:27:19.686Z,21.46
2022-07-26T19:29:46.533Z,21.42
2022-07-26T19:32:13.179Z,21.41
2022-07-26T19:34:40.152Z,21.30
2022-07-26T19:37:06.823Z,21.31
2022-07-26T19:39:33.551Z,21.29
2022-07-26T19:42:00.218Z,21.29
2022-07-26T19:44:27.294Z,21.29
2022-07-26T19:46:57.469Z,21.26
2022-07-26T19:49:25.180Z,21.21
2022-07-26T19:51:52.021Z,21.18
2022-07-26T19:54:18.877Z,21.17
2022-07-26T19:56:45.527Z,21.15
2022-07-26T19:59:12.689Z,21.11
2022-07-26T20:01:39.769Z,21.09
2022-07-26T20:04:06.556Z,21.10
2022-07-26T20:06:33.606Z,21.12
2022-07-26T20:09:00.301Z,21.17
2022-07-26T20:11:28.239Z,21.14
2022-07-26T20:13:55.563Z,21.19
2022-07-26T20:16:22.427Z,21.27
2022-07-26T20:18:49.180Z,21.33
2022-07-26T20:21:16.141Z,21.31
2022-07-26T20:23:42.951Z,21.25
2022-07-26T20:26:09.779Z,21.25
2022-07-26T20:28:38.342Z,21.23
2022-07-26T20:31:05.149Z,21.20
2022-07-26T20:33:32.039Z,21.19
2022-07-26T20:35:58.787Z,21.33
2022-07-26T20:38:25.554Z,21.32
2022-07-26T20:40:52.800Z,21.45
2022-07-26T20:43:22.354Z,21.48
2022-07-26T20:45:49.646Z,21.31
2022-07-26T20:48:16.348Z,21.23
2022-07-26T20:50:43.151Z,21.41
2022-07-26T20:53:09.932Z,21.31
2022-07-26T20:55:37.069Z,21.35
2022-07-26T20:58:03.793Z,21.35
2022-07-26T21:00:30.632Z,21.29
2022-07-26T21:02:59.425Z,21.33
2022-07-26T21:05:30.855Z,21.17
2022-07-26T21:07:59.974Z,21.07
2022-07-26T21:10:29.304Z,21.02
2022-07-26T21:13:00.270Z,20.98
2022-07-26T21:15:29.220Z,20.97
2022-07-26T21:17:56.128Z,20.95
2022-07-26T21:20:22.792Z,20.99
2022-07-26T21:22:49.498Z,21.18
2022-07-26T21:25:16.232Z,21.32
2022-07-26T21:27:43.049Z,21.37
2022-07-26T21:30:10.256Z,21.15
2022-07-26T21:32:37.035Z,21.04
2022-07-26T21:35:04.380Z,20.83
2022-07-26T21:37:31.157Z,20.78
2022-07-26T21:39:57.772Z,20.75
2022-07-26T21:42:27.648Z,20.72
2022-07-26T21:44:54.323Z,20.78
2022-07-26T21:47:20.998Z,20.75
2022-07-26T21:49:47.674Z,20.59
2022-07-26T21:52:14.479Z,20.47
2022-07-26T21:54:41.141Z,20.45
2022-07-26T21:57:07.877Z,20.54
2022-07-26T21:59:34.613Z,20.47
2022-07-26T22:02:01.427Z,20.39
2022-07-26T22:04:28.190Z,20.37
2022-07-26T22:06:54.820Z,20.40
2022-07-26T22:09:21.494Z,20.42
2022-07-26T22:11:48.256Z,20.39
2022-07-26T22:14:14.958Z,20.36
2022-07-26T22:16:44.653Z,20.28
2022-07-26T22:19:11.748Z,20.22
2022-07-26T22:21:39.724Z,20.13
2022-07-26T22:24:06.909Z,20.12
2022-07-26T22:26:33.673Z,20.03
2022-07-26T22:29:00.562Z,19.96
2022-07-26T22:31:27.826Z,19.83
2022-07-26T22:33:54.565Z,19.83
2022-07-26T22:36:21.277Z,19.92
2022-07-26T22:38:48.058Z,19.95
2022-07-26T22:41:14.770Z,20.00
2022-07-26T22:43:41.500Z,19.93
2022-07-26T22:46:08.372Z,19.97
2022-07-26T22:48:38.383Z,19.94
2022-07-26T22:51:05.479Z,19.92
2022-07-26T22:53:32.166Z,19.87
2022-07-26T22:55:58.861Z,19.85
2022-07-26T22:58:25.538Z,19.79
2022-07-26T23:00:52.293Z,19.72
2022-07-26T23:03:21.578Z,19.61
2022-07-26T23:05:49.931Z,19.47
2022-07-26T23:11:04.808Z,19.39
2022-07-26T23:13:31.598Z,19.33
2022-07-26T23:16:01.288Z,19.36
2022-07-26T23:18:29.957Z,19.36
2022-07-26T23:20:56.944Z,19.29
2022-07-26T23:23:24.991Z,19.22
2022-07-26T23:25:56.080Z,19.23
2022-07-26T23:28:35.866Z,19.15
2022-07-26T23:31:06.406Z,19.16
2022-07-26T23:33:51.415Z,19.14
2022-07-26T23:36:19.931Z,19.15
2022-07-26T23:38:46.579Z,19.18
2022-07-26T23:41:13.277Z,19.18
2022-07-26T23:43:39.981Z,19.14
2022-07-26T23:46:06.653Z,19.10
2022-07-26T23:48:33.436Z,19.06
2022-07-26T23:51:00.109Z,19.00
2022-07-26T23:53:27.427Z,18.92
2022-07-26T23:55:54.807Z,18.83
2022-07-26T23:58:21.952Z,18.81
